sensor_id;sensor_type;location;lat;lon;timestamp;temperature;humidity
77613;DHT22;66777;52.282;5.960;2023-02-20T00:01:24;5.50;89.50
77613;DHT22;66777;52.282;5.960;2023-02-20T00:03:50;5.50;89.40
77613;DHT22;66777;52.282;5.960;2023-02-20T00:06:16;5.50;88.70
77613;DHT22;66777;52.282;5.960;2023-02-20T00:08:43;5.50;89.00
77613;DHT22;66777;52.282;5.960;2023-02-20T00:11:09;5.50;89.00
77613;DHT22;66777;52.282;5.960;2023-02-20T00:13:35;5.50;89.20
77613;DHT22;66777;52.282;5.960;2023-02-20T00:16:01;5.50;89.00
77613;DHT22;66777;52.282;5.960;2023-02-20T00:18:26;5.50;88.50
77613;DHT22;66777;52.282;5.960;2023-02-20T00:20:53;5.60;88.50
77613;DHT22;66777;52.282;5.960;2023-02-20T00:23:19;5.60;88.70
77613;DHT22;66777;52.282;5.960;2023-02-20T00:25:45;5.60;88.70
77613;DHT22;66777;52.282;5.960;2023-02-20T00:28:11;5.60;89.50
77613;DHT22;66777;52.282;5.960;2023-02-20T00:30:36;5.60;89.40
77613;DHT22;66777;52.282;5.960;2023-02-20T00:33:03;5.60;88.70
77613;DHT22;66777;52.282;5.960;2023-02-20T00:35:29;5.70;89.00
77613;DHT22;66777;52.282;5.960;2023-02-20T00:37:55;5.70;88.90
77613;DHT22;66777;52.282;5.960;2023-02-20T00:40:22;5.70;88.90
77613;DHT22;66777;52.282;5.960;2023-02-20T00:42:49;5.70;88.60
77613;DHT22;66777;52.282;5.960;2023-02-20T00:45:16;5.70;89.40
77613;DHT22;66777;52.282;5.960;2023-02-20T00:47:43;5.70;89.30
77613;DHT22;66777;52.282;5.960;2023-02-20T00:50:09;5.80;89.30
77613;DHT22;66777;52.282;5.960;2023-02-20T00:52:35;5.80;89.20
77613;DHT22;66777;52.282;5.960;2023-02-20T00:55:04;5.80;89.00
77613;DHT22;66777;52.282;5.960;2023-02-20T00:57:31;5.80;89.10
77613;DHT22;66777;52.282;5.960;2023-02-20T00:59:57;5.80;88.90
77613;DHT22;66777;52.282;5.960;2023-02-20T01:02:23;5.80;89.10
77613;DHT22;66777;52.282;5.960;2023-02-20T01:04:48;5.80;89.10
77613;DHT22;66777;52.282;5.960;2023-02-20T01:07:15;5.70;89.50
77613;DHT22;66777;52.282;5.960;2023-02-20T01:09:41;5.80;89.80
77613;DHT22;66777;52.282;5.960;2023-02-20T01:12:07;5.80;89.50
77613;DHT22;66777;52.282;5.960;2023-02-20T01:14:33;5.80;89.00
77613;DHT22;66777;52.282;5.960;2023-02-20T01:16:59;5.80;88.60
77613;DHT22;66777;52.282;5.960;2023-02-20T01:19:25;5.70;88.50
77613;DHT22;66777;52.282;5.960;2023-02-20T01:21:51;5.60;89.00
77613;DHT22;66777;52.282;5.960;2023-02-20T01:24:17;5.60;89.00
77613;DHT22;66777;52.282;5.960;2023-02-20T01:26:45;5.50;88.90
77613;DHT22;66777;52.282;5.960;2023-02-20T01:29:12;5.50;89.70
77613;DHT22;66777;52.282;5.960;2023-02-20T01:31:37;5.50;89.40
77613;DHT22;66777;52.282;5.960;2023-02-20T01:34:04;5.50;89.00
77613;DHT22;66777;52.282;5.960;2023-02-20T01:36:30;5.50;88.90
77613;DHT22;66777;52.282;5.960;2023-02-20T01:38:56;5.50;89.70
77613;DHT22;66777;52.282;5.960;2023-02-20T01:41:23;5.40;89.70
77613;DHT22;66777;52.282;5.960;2023-02-20T01:43:50;5.40;89.60
77613;DHT22;66777;52.282;5.960;2023-02-20T01:49:09;5.30;89.90
77613;DHT22;66777;52.282;5.960;2023-02-20T01:51:50;5.30;89.80
77613;DHT22;66777;52.282;5.960;2023-02-20T01:54:18;5.30;89.70
77613;DHT22;66777;52.282;5.960;2023-02-20T01:56:46;5.30;89.70
77613;DHT22;66777;52.282;5.960;2023-02-20T01:59:15;5.30;89.70
77613;DHT22;66777;52.282;5.960;2023-02-20T02:01:41;5.30;89.60
77613;DHT22;66777;52.282;5.960;2023-02-20T02:04:09;5.30;89.90
77613;DHT22;66777;52.282;5.960;2023-02-20T02:06:39;5.30;89.80
77613;DHT22;66777;52.282;5.960;2023-02-20T02:09:52;5.30;89.60
77613;DHT22;66777;52.282;5.960;2023-02-20T02:12:19;5.30;90.00
77613;DHT22;66777;52.282;5.960;2023-02-20T02:14:45;5.30;89.80
77613;DHT22;66777;52.282;5.960;2023-02-20T02:40:42;5.30;90.20
77613;DHT22;66777;52.282;5.960;2023-02-20T02:51:53;5.30;90.10
77613;DHT22;66777;52.282;5.960;2023-02-20T02:54:23;5.30;90.50
77613;DHT22;66777;52.282;5.960;2023-02-20T02:59:37;5.40;90.70
77613;DHT22;66777;52.282;5.960;2023-02-20T03:02:08;5.50;90.60
77613;DHT22;66777;52.282;5.960;2023-02-20T03:04:36;5.50;90.70
77613;DHT22;66777;52.282;5.960;2023-02-20T03:07:12;5.50;90.70
77613;DHT22;66777;52.282;5.960;2023-02-20T03:09:46;5.60;90.60
77613;DHT22;66777;52.282;5.960;2023-02-20T03:12:13;5.70;90.60
77613;DHT22;66777;52.282;5.960;2023-02-20T03:15:24;5.80;90.40
77613;DHT22;66777;52.282;5.960;2023-02-20T03:20:43;5.80;90.40
77613;DHT22;66777;52.282;5.960;2023-02-20T03:23:16;5.90;90.40
77613;DHT22;66777;52.282;5.960;2023-02-20T03:25:52;5.90;90.40
77613;DHT22;66777;52.282;5.960;2023-02-20T03:28:31;5.90;90.30
77613;DHT22;66777;52.282;5.960;2023-02-20T03:31:03;6.00;90.70
77613;DHT22;66777;52.282;5.960;2023-02-20T03:33:44;6.00;90.80
77613;DHT22;66777;52.282;5.960;2023-02-20T03:36:38;6.00;90.80
77613;DHT22;66777;52.282;5.960;2023-02-20T03:39:29;6.10;90.50
77613;DHT22;66777;52.282;5.960;2023-02-20T03:42:18;6.10;90.60
77613;DHT22;66777;52.282;5.960;2023-02-20T03:45:05;6.10;90.10
77613;DHT22;66777;52.282;5.960;2023-02-20T03:47:35;6.20;90.60
77613;DHT22;66777;52.282;5.960;2023-02-20T03:50:04;6.20;90.60
77613;DHT22;66777;52.282;5.960;2023-02-20T03:52:50;6.20;90.70
77613;DHT22;66777;52.282;5.960;2023-02-20T03:55:16;6.30;90.80
77613;DHT22;66777;52.282;5.960;2023-02-20T03:57:46;6.30;90.80
77613;DHT22;66777;52.282;5.960;2023-02-20T04:00:19;6.30;90.70
77613;DHT22;66777;52.282;5.960;2023-02-20T04:02:47;6.30;90.50
77613;DHT22;66777;52.282;5.960;2023-02-20T04:05:24;6.30;90.60
77613;DHT22;66777;52.282;5.960;2023-02-20T04:10:42;6.40;90.50
77613;DHT22;66777;52.282;5.960;2023-02-20T04:13:11;6.40;90.70
77613;DHT22;66777;52.282;5.960;2023-02-20T04:15:37;6.40;90.50
77613;DHT22;66777;52.282;5.960;2023-02-20T04:18:12;6.50;90.70
77613;DHT22;66777;52.282;5.960;2023-02-20T04:20:39;6.50;90.60
77613;DHT22;66777;52.282;5.960;2023-02-20T04:23:25;6.50;90.50
77613;DHT22;66777;52.282;5.960;2023-02-20T04:26:07;6.50;90.70
77613;DHT22;66777;52.282;5.960;2023-02-20T04:28:35;6.60;90.70
77613;DHT22;66777;52.282;5.960;2023-02-20T04:31:01;6.60;90.50
77613;DHT22;66777;52.282;5.960;2023-02-20T04:33:26;6.60;90.50
77613;DHT22;66777;52.282;5.960;2023-02-20T04:35:52;6.70;90.40
77613;DHT22;66777;52.282;5.960;2023-02-20T04:38:19;6.70;90.10
77613;DHT22;66777;52.282;5.960;2023-02-20T04:40:45;6.70;90.50
77613;DHT22;66777;52.282;5.960;2023-02-20T04:43:12;6.80;90.60
77613;DHT22;66777;52.282;5.960;2023-02-20T04:45:37;6.80;90.30
77613;DHT22;66777;52.282;5.960;2023-02-20T04:48:03;6.80;90.50
77613;DHT22;66777;52.282;5.960;2023-02-20T04:50:31;6.80;90.50
77613;DHT22;66777;52.282;5.960;2023-02-20T04:52:58;6.80;90.30
77613;DHT22;66777;52.282;5.960;2023-02-20T04:55:25;6.80;90.40
77613;DHT22;66777;52.282;5.960;2023-02-20T04:57:51;6.90;90.10
77613;DHT22;66777;52.282;5.960;2023-02-20T05:00:18;6.90;89.90
77613;DHT22;66777;52.282;5.960;2023-02-20T05:02:45;6.90;90.00
77613;DHT22;66777;52.282;5.960;2023-02-20T05:05:19;6.90;89.90
77613;DHT22;66777;52.282;5.960;2023-02-20T05:07:45;6.90;90.00
77613;DHT22;66777;52.282;5.960;2023-02-20T05:10:20;6.90;90.20
77613;DHT22;66777;52.282;5.960;2023-02-20T05:12:46;6.90;90.30
77613;DHT22;66777;52.282;5.960;2023-02-20T05:15:13;6.90;90.00
77613;DHT22;66777;52.282;5.960;2023-02-20T05:17:39;7.00;89.70
77613;DHT22;66777;52.282;5.960;2023-02-20T05:20:05;7.00;90.10
77613;DHT22;66777;52.282;5.960;2023-02-20T05:22:33;7.00;89.90
77613;DHT22;66777;52.282;5.960;2023-02-20T05:24:59;7.00;89.90
77613;DHT22;66777;52.282;5.960;2023-02-20T05:27:25;7.00;89.70
77613;DHT22;66777;52.282;5.960;2023-02-20T05:29:54;7.00;89.70
77613;DHT22;66777;52.282;5.960;2023-02-20T05:32:21;7.00;89.50
77613;DHT22;66777;52.282;5.960;2023-02-20T05:34:47;7.10;89.50
77613;DHT22;66777;52.282;5.960;2023-02-20T05:37:15;7.10;89.60
77613;DHT22;66777;52.282;5.960;2023-02-20T05:39:41;7.10;89.40
77613;DHT22;66777;52.282;5.960;2023-02-20T05:42:07;7.00;89.30
77613;DHT22;66777;52.282;5.960;2023-02-20T05:44:34;7.10;89.50
77613;DHT22;66777;52.282;5.960;2023-02-20T05:47:01;7.10;89.40
77613;DHT22;66777;52.282;5.960;2023-02-20T05:49:27;7.10;89.50
77613;DHT22;66777;52.282;5.960;2023-02-20T05:51:56;7.20;89.80
77613;DHT22;66777;52.282;5.960;2023-02-20T05:54:23;7.10;89.60
77613;DHT22;66777;52.282;5.960;2023-02-20T05:56:49;7.10;89.70
77613;DHT22;66777;52.282;5.960;2023-02-20T05:59:18;7.20;89.70
77613;DHT22;66777;52.282;5.960;2023-02-20T06:01:46;7.20;89.50
77613;DHT22;66777;52.282;5.960;2023-02-20T06:04:11;7.20;89.00
77613;DHT22;66777;52.282;5.960;2023-02-20T06:06:41;7.20;89.20
77613;DHT22;66777;52.282;5.960;2023-02-20T06:09:10;7.20;88.90
77613;DHT22;66777;52.282;5.960;2023-02-20T06:11:37;7.20;88.70
77613;DHT22;66777;52.282;5.960;2023-02-20T06:14:04;7.20;89.00
77613;DHT22;66777;52.282;5.960;2023-02-20T06:16:31;7.20;88.90
77613;DHT22;66777;52.282;5.960;2023-02-20T06:18:57;7.20;89.30
77613;DHT22;66777;52.282;5.960;2023-02-20T06:21:25;7.20;89.00
77613;DHT22;66777;52.282;5.960;2023-02-20T06:23:52;7.30;89.30
77613;DHT22;66777;52.282;5.960;2023-02-20T06:26:21;7.30;88.90
77613;DHT22;66777;52.282;5.960;2023-02-20T06:28:47;7.30;89.00
77613;DHT22;66777;52.282;5.960;2023-02-20T06:31:21;7.40;89.00
77613;DHT22;66777;52.282;5.960;2023-02-20T06:33:47;7.40;88.80
77613;DHT22;66777;52.282;5.960;2023-02-20T06:36:20;7.40;88.90
77613;DHT22;66777;52.282;5.960;2023-02-20T06:38:46;7.40;88.80
77613;DHT22;66777;52.282;5.960;2023-02-20T06:41:12;7.40;89.20
77613;DHT22;66777;52.282;5.960;2023-02-20T06:43:38;7.40;88.70
77613;DHT22;66777;52.282;5.960;2023-02-20T06:46:03;7.50;88.70
77613;DHT22;66777;52.282;5.960;2023-02-20T06:48:29;7.50;88.80
77613;DHT22;66777;52.282;5.960;2023-02-20T06:50:55;7.50;88.20
77613;DHT22;66777;52.282;5.960;2023-02-20T06:53:21;7.50;88.00
77613;DHT22;66777;52.282;5.960;2023-02-20T06:55:47;7.50;87.90
77613;DHT22;66777;52.282;5.960;2023-02-20T06:58:13;7.50;88.50
77613;DHT22;66777;52.282;5.960;2023-02-20T07:00:39;7.50;88.00
77613;DHT22;66777;52.282;5.960;2023-02-20T07:03:04;7.60;88.30
77613;DHT22;66777;52.282;5.960;2023-02-20T07:05:30;7.60;88.40
77613;DHT22;66777;52.282;5.960;2023-02-20T07:07:56;7.60;88.70
77613;DHT22;66777;52.282;5.960;2023-02-20T07:10:22;7.70;88.40
77613;DHT22;66777;52.282;5.960;2023-02-20T07:12:48;7.70;88.20
77613;DHT22;66777;52.282;5.960;2023-02-20T07:15:14;7.80;87.60
77613;DHT22;66777;52.282;5.960;2023-02-20T07:17:40;7.80;87.70
77613;DHT22;66777;52.282;5.960;2023-02-20T07:20:07;7.80;88.20
77613;DHT22;66777;52.282;5.960;2023-02-20T07:22:33;7.80;87.80
77613;DHT22;66777;52.282;5.960;2023-02-20T07:24:59;7.80;87.90
77613;DHT22;66777;52.282;5.960;2023-02-20T07:27:25;7.80;87.70
77613;DHT22;66777;52.282;5.960;2023-02-20T07:29:50;7.80;87.90
77613;DHT22;66777;52.282;5.960;2023-02-20T07:32:17;7.80;87.90
77613;DHT22;66777;52.282;5.960;2023-02-20T07:34:48;7.90;88.20
77613;DHT22;66777;52.282;5.960;2023-02-20T07:37:15;7.90;88.40
77613;DHT22;66777;52.282;5.960;2023-02-20T07:39:41;7.90;87.90
77613;DHT22;66777;52.282;5.960;2023-02-20T07:42:07;8.00;87.70
77613;DHT22;66777;52.282;5.960;2023-02-20T07:44:33;8.00;87.50
77613;DHT22;66777;52.282;5.960;2023-02-20T07:47:00;8.00;87.50
77613;DHT22;66777;52.282;5.960;2023-02-20T07:49:26;8.00;87.50
77613;DHT22;66777;52.282;5.960;2023-02-20T07:51:52;8.00;87.30
77613;DHT22;66777;52.282;5.960;2023-02-20T07:54:17;8.00;87.30
77613;DHT22;66777;52.282;5.960;2023-02-20T07:56:43;8.00;87.40
77613;DHT22;66777;52.282;5.960;2023-02-20T07:59:09;8.00;86.80
77613;DHT22;66777;52.282;5.960;2023-02-20T08:01:35;8.00;87.00
77613;DHT22;66777;52.282;5.960;2023-02-20T08:04:01;8.10;87.10
77613;DHT22;66777;52.282;5.960;2023-02-20T08:06:27;8.00;86.40
77613;DHT22;66777;52.282;5.960;2023-02-20T08:08:53;8.10;87.00
77613;DHT22;66777;52.282;5.960;2023-02-20T08:11:22;8.10;87.00
77613;DHT22;66777;52.282;5.960;2023-02-20T08:13:48;8.10;86.70
77613;DHT22;66777;52.282;5.960;2023-02-20T08:16:13;8.10;87.00
77613;DHT22;66777;52.282;5.960;2023-02-20T08:18:39;8.10;86.80
77613;DHT22;66777;52.282;5.960;2023-02-20T08:21:05;8.20;86.30
77613;DHT22;66777;52.282;5.960;2023-02-20T08:23:31;8.30;86.00
77613;DHT22;66777;52.282;5.960;2023-02-20T08:25:56;8.30;86.30
77613;DHT22;66777;52.282;5.960;2023-02-20T08:28:22;8.40;86.30
77613;DHT22;66777;52.282;5.960;2023-02-20T08:30:48;8.40;85.60
77613;DHT22;66777;52.282;5.960;2023-02-20T08:33:15;8.40;85.50
77613;DHT22;66777;52.282;5.960;2023-02-20T08:35:41;8.50;85.80
77613;DHT22;66777;52.282;5.960;2023-02-20T08:38:22;8.50;85.70
77613;DHT22;66777;52.282;5.960;2023-02-20T08:40:48;8.60;85.60
77613;DHT22;66777;52.282;5.960;2023-02-20T08:43:14;8.60;85.10
77613;DHT22;66777;52.282;5.960;2023-02-20T08:45:39;8.70;85.40
77613;DHT22;66777;52.282;5.960;2023-02-20T08:48:05;8.70;85.80
77613;DHT22;66777;52.282;5.960;2023-02-20T08:50:32;8.70;85.20
77613;DHT22;66777;52.282;5.960;2023-02-20T08:52:58;8.80;85.50
77613;DHT22;66777;52.282;5.960;2023-02-20T08:55:24;8.70;85.50
77613;DHT22;66777;52.282;5.960;2023-02-20T08:57:50;8.80;85.80
77613;DHT22;66777;52.282;5.960;2023-02-20T09:00:16;8.80;85.50
77613;DHT22;66777;52.282;5.960;2023-02-20T09:02:45;8.90;85.70
77613;DHT22;66777;52.282;5.960;2023-02-20T09:05:10;8.90;85.70
77613;DHT22;66777;52.282;5.960;2023-02-20T09:07:36;8.90;85.50
77613;DHT22;66777;52.282;5.960;2023-02-20T09:10:04;9.00;85.60
77613;DHT22;66777;52.282;5.960;2023-02-20T09:12:32;9.00;85.20
77613;DHT22;66777;52.282;5.960;2023-02-20T09:14:58;8.90;85.10
77613;DHT22;66777;52.282;5.960;2023-02-20T09:17:28;8.90;85.50
77613;DHT22;66777;52.282;5.960;2023-02-20T09:19:54;8.90;85.30
77613;DHT22;66777;52.282;5.960;2023-02-20T09:22:22;8.90;85.40
77613;DHT22;66777;52.282;5.960;2023-02-20T09:24:48;8.90;85.70
77613;DHT22;66777;52.282;5.960;2023-02-20T09:27:14;8.90;85.50
77613;DHT22;66777;52.282;5.960;2023-02-20T09:29:40;8.90;85.70
77613;DHT22;66777;52.282;5.960;2023-02-20T09:32:08;9.00;85.70
77613;DHT22;66777;52.282;5.960;2023-02-20T09:34:34;9.00;86.00
77613;DHT22;66777;52.282;5.960;2023-02-20T09:37:00;9.00;85.70
77613;DHT22;66777;52.282;5.960;2023-02-20T09:39:26;9.00;85.70
77613;DHT22;66777;52.282;5.960;2023-02-20T09:45:15;9.00;85.40
77613;DHT22;66777;52.282;5.960;2023-02-20T09:47:51;9.00;85.30
77613;DHT22;66777;52.282;5.960;2023-02-20T09:55:47;9.10;85.90
77613;DHT22;66777;52.282;5.960;2023-02-20T09:58:40;9.10;85.60
77613;DHT22;66777;52.282;5.960;2023-02-20T10:01:08;9.10;85.50
77613;DHT22;66777;52.282;5.960;2023-02-20T10:03:56;9.10;85.10
77613;DHT22;66777;52.282;5.960;2023-02-20T10:06:29;9.00;85.00
77613;DHT22;66777;52.282;5.960;2023-02-20T10:08:55;9.00;84.70
77613;DHT22;66777;52.282;5.960;2023-02-20T10:14:14;9.10;85.60
77613;DHT22;66777;52.282;5.960;2023-02-20T10:19:52;9.00;84.70
77613;DHT22;66777;52.282;5.960;2023-02-20T10:22:35;9.10;84.90
77613;DHT22;66777;52.282;5.960;2023-02-20T10:25:24;9.20;84.60
77613;DHT22;66777;52.282;5.960;2023-02-20T10:28:14;9.20;85.00
77613;DHT22;66777;52.282;5.960;2023-02-20T10:33:37;9.20;85.20
77613;DHT22;66777;52.282;5.960;2023-02-20T10:36:28;9.20;84.50
77613;DHT22;66777;52.282;5.960;2023-02-20T10:39:10;9.30;83.90
77613;DHT22;66777;52.282;5.960;2023-02-20T10:44:30;9.40;84.50
77613;DHT22;66777;52.282;5.960;2023-02-20T10:47:15;9.40;84.10
77613;DHT22;66777;52.282;5.960;2023-02-20T10:52:34;9.40;84.10
77613;DHT22;66777;52.282;5.960;2023-02-20T10:55:08;9.40;83.60
77613;DHT22;66777;52.282;5.960;2023-02-20T10:58:01;9.40;84.40
77613;DHT22;66777;52.282;5.960;2023-02-20T11:00:49;9.40;84.50
77613;DHT22;66777;52.282;5.960;2023-02-20T11:06:10;9.40;84.50
77613;DHT22;66777;52.282;5.960;2023-02-20T11:08:36;9.40;84.40
77613;DHT22;66777;52.282;5.960;2023-02-20T11:11:20;9.40;84.30
77613;DHT22;66777;52.282;5.960;2023-02-20T11:13:46;9.40;84.10
77613;DHT22;66777;52.282;5.960;2023-02-20T11:16:32;9.40;84.60
77613;DHT22;66777;52.282;5.960;2023-02-20T11:19:14;9.40;85.10
77613;DHT22;66777;52.282;5.960;2023-02-20T11:21:46;9.20;84.60
77613;DHT22;66777;52.282;5.960;2023-02-20T11:29:40;9.20;85.20
77613;DHT22;66777;52.282;5.960;2023-02-20T11:32:30;9.20;85.60
77613;DHT22;66777;52.282;5.960;2023-02-20T11:37:41;9.30;85.50
77613;DHT22;66777;52.282;5.960;2023-02-20T11:40:26;9.30;85.10
77613;DHT22;66777;52.282;5.960;2023-02-20T11:42:52;9.40;85.00
77613;DHT22;66777;52.282;5.960;2023-02-20T11:45:28;9.40;85.10
77613;DHT22;66777;52.282;5.960;2023-02-20T11:48:16;9.40;85.10
77613;DHT22;66777;52.282;5.960;2023-02-20T11:50:46;9.60;84.50
77613;DHT22;66777;52.282;5.960;2023-02-20T11:53:32;9.60;84.00
77613;DHT22;66777;52.282;5.960;2023-02-20T11:56:14;9.50;83.50
77613;DHT22;66777;52.282;5.960;2023-02-20T11:58:41;9.50;84.10
77613;DHT22;66777;52.282;5.960;2023-02-20T12:01:26;9.50;84.20
77613;DHT22;66777;52.282;5.960;2023-02-20T12:03:58;9.60;84.50
77613;DHT22;66777;52.282;5.960;2023-02-20T12:09:00;9.70;83.50
77613;DHT22;66777;52.282;5.960;2023-02-20T12:11:28;9.70;83.20
77613;DHT22;66777;52.282;5.960;2023-02-20T12:13:56;9.70;83.80
77613;DHT22;66777;52.282;5.960;2023-02-20T12:16:42;9.70;84.10
77613;DHT22;66777;52.282;5.960;2023-02-20T12:19:16;9.60;83.40
77613;DHT22;66777;52.282;5.960;2023-02-20T12:24:42;9.60;83.60
77613;DHT22;66777;52.282;5.960;2023-02-20T12:35:22;9.70;84.50
77613;DHT22;66777;52.282;5.960;2023-02-20T12:46:56;9.60;84.10
77613;DHT22;66777;52.282;5.960;2023-02-20T12:49:44;9.60;84.20
77613;DHT22;66777;52.282;5.960;2023-02-20T12:58:14;9.50;84.00
77613;DHT22;66777;52.282;5.960;2023-02-20T13:00:51;9.50;84.40
77613;DHT22;66777;52.282;5.960;2023-02-20T13:03:51;9.60;84.70
77613;DHT22;66777;52.282;5.960;2023-02-20T13:09:25;9.60;84.00
77613;DHT22;66777;52.282;5.960;2023-02-20T13:12:01;9.60;83.80
77613;DHT22;66777;52.282;5.960;2023-02-20T13:14:59;9.60;84.00
77613;DHT22;66777;52.282;5.960;2023-02-20T13:17:52;9.70;83.50
77613;DHT22;66777;52.282;5.960;2023-02-20T13:20:25;9.80;82.80
77613;DHT22;66777;52.282;5.960;2023-02-20T13:25:48;9.80;83.30
77613;DHT22;66777;52.282;5.960;2023-02-20T13:28:26;9.90;83.60
77613;DHT22;66777;52.282;5.960;2023-02-20T13:33:33;9.80;83.30
77613;DHT22;66777;52.282;5.960;2023-02-20T13:36:01;9.80;83.30
77613;DHT22;66777;52.282;5.960;2023-02-20T13:38:27;9.70;83.80
77613;DHT22;66777;52.282;5.960;2023-02-20T13:43:41;9.80;83.80
77613;DHT22;66777;52.282;5.960;2023-02-20T13:53:49;9.80;83.00
77613;DHT22;66777;52.282;5.960;2023-02-20T13:56:24;10.00;82.50
77613;DHT22;66777;52.282;5.960;2023-02-20T13:58:53;10.00;82.80
77613;DHT22;66777;52.282;5.960;2023-02-20T14:01:20;10.10;82.90
77613;DHT22;66777;52.282;5.960;2023-02-20T14:04:02;10.20;81.70
77613;DHT22;66777;52.282;5.960;2023-02-20T14:06:29;10.10;82.30
77613;DHT22;66777;52.282;5.960;2023-02-20T14:09:12;10.20;82.10
77613;DHT22;66777;52.282;5.960;2023-02-20T14:11:42;10.70;81.00
77613;DHT22;66777;52.282;5.960;2023-02-20T14:14:26;10.60;81.20
77613;DHT22;66777;52.282;5.960;2023-02-20T14:17:20;10.60;81.50
77613;DHT22;66777;52.282;5.960;2023-02-20T14:20:00;10.50;81.90
77613;DHT22;66777;52.282;5.960;2023-02-20T14:22:32;10.30;81.60
77613;DHT22;66777;52.282;5.960;2023-02-20T14:27:35;10.10;82.90
77613;DHT22;66777;52.282;5.960;2023-02-20T14:30:13;10.00;82.10
77613;DHT22;66777;52.282;5.960;2023-02-20T14:32:49;10.00;83.00
77613;DHT22;66777;52.282;5.960;2023-02-20T14:35:24;10.00;82.30
77613;DHT22;66777;52.282;5.960;2023-02-20T14:40:49;9.90;83.80
77613;DHT22;66777;52.282;5.960;2023-02-20T14:43:21;9.90;82.80
77613;DHT22;66777;52.282;5.960;2023-02-20T14:45:58;9.90;83.70
77613;DHT22;66777;52.282;5.960;2023-02-20T14:48:28;9.80;83.40
77613;DHT22;66777;52.282;5.960;2023-02-20T14:53:36;9.80;84.00
77613;DHT22;66777;52.282;5.960;2023-02-20T14:56:15;9.80;83.90
77613;DHT22;66777;52.282;5.960;2023-02-20T14:58:47;9.70;83.60
77613;DHT22;66777;52.282;5.960;2023-02-20T15:01:13;9.60;83.40
77613;DHT22;66777;52.282;5.960;2023-02-20T15:03:40;9.70;84.10
77613;DHT22;66777;52.282;5.960;2023-02-20T15:06:09;9.70;84.10
77613;DHT22;66777;52.282;5.960;2023-02-20T15:08:37;9.70;84.20
77613;DHT22;66777;52.282;5.960;2023-02-20T15:11:14;9.60;83.60
77613;DHT22;66777;52.282;5.960;2023-02-20T15:13:45;9.60;84.20
77613;DHT22;66777;52.282;5.960;2023-02-20T15:16:20;9.60;84.10
77613;DHT22;66777;52.282;5.960;2023-02-20T15:18:47;9.60;83.60
77613;DHT22;66777;52.282;5.960;2023-02-20T15:21:36;9.50;84.40
77613;DHT22;66777;52.282;5.960;2023-02-20T15:24:41;9.40;84.00
77613;DHT22;66777;52.282;5.960;2023-02-20T15:29:33;9.40;84.30
77613;DHT22;66777;52.282;5.960;2023-02-20T15:32:01;9.40;84.30
77613;DHT22;66777;52.282;5.960;2023-02-20T15:34:29;9.40;84.10
77613;DHT22;66777;52.282;5.960;2023-02-20T15:36:57;9.40;84.10
77613;DHT22;66777;52.282;5.960;2023-02-20T15:39:23;9.40;84.90
77613;DHT22;66777;52.282;5.960;2023-02-20T15:41:50;9.40;84.60
77613;DHT22;66777;52.282;5.960;2023-02-20T15:44:16;9.40;85.10
77613;DHT22;66777;52.282;5.960;2023-02-20T15:46:42;9.40;85.10
77613;DHT22;66777;52.282;5.960;2023-02-20T15:49:08;9.40;85.30
77613;DHT22;66777;52.282;5.960;2023-02-20T15:51:40;9.40;85.30
77613;DHT22;66777;52.282;5.960;2023-02-20T15:54:13;9.40;85.00
77613;DHT22;66777;52.282;5.960;2023-02-20T15:56:39;9.30;85.00
77613;DHT22;66777;52.282;5.960;2023-02-20T15:59:08;9.30;85.10
77613;DHT22;66777;52.282;5.960;2023-02-20T16:01:37;9.30;85.50
77613;DHT22;66777;52.282;5.960;2023-02-20T16:04:02;9.30;85.60
77613;DHT22;66777;52.282;5.960;2023-02-20T16:06:28;9.30;85.80
77613;DHT22;66777;52.282;5.960;2023-02-20T16:08:54;9.20;85.20
77613;DHT22;66777;52.282;5.960;2023-02-20T16:11:23;9.20;84.90
77613;DHT22;66777;52.282;5.960;2023-02-20T16:13:55;9.20;85.10
77613;DHT22;66777;52.282;5.960;2023-02-20T16:16:45;9.10;85.40
77613;DHT22;66777;52.282;5.960;2023-02-20T16:19:15;9.10;85.40
77613;DHT22;66777;52.282;5.960;2023-02-20T16:21:42;9.00;85.20
77613;DHT22;66777;52.282;5.960;2023-02-20T16:24:08;9.00;85.00
77613;DHT22;66777;52.282;5.960;2023-02-20T16:26:37;9.00;85.30
77613;DHT22;66777;52.282;5.960;2023-02-20T16:29:14;9.00;85.30
77613;DHT22;66777;52.282;5.960;2023-02-20T16:34:22;9.00;85.50
77613;DHT22;66777;52.282;5.960;2023-02-20T16:36:49;9.00;85.90
77613;DHT22;66777;52.282;5.960;2023-02-20T16:39:15;9.00;85.80
77613;DHT22;66777;52.282;5.960;2023-02-20T16:41:41;8.90;85.60
77613;DHT22;66777;52.282;5.960;2023-02-20T16:44:35;9.00;85.50
77613;DHT22;66777;52.282;5.960;2023-02-20T16:47:03;8.90;85.50
77613;DHT22;66777;52.282;5.960;2023-02-20T16:49:29;8.90;85.50
77613;DHT22;66777;52.282;5.960;2023-02-20T16:52:03;8.90;85.50
77613;DHT22;66777;52.282;5.960;2023-02-20T16:54:43;8.90;85.30
77613;DHT22;66777;52.282;5.960;2023-02-20T16:57:09;8.80;85.40
77613;DHT22;66777;52.282;5.960;2023-02-20T16:59:35;8.80;85.40
77613;DHT22;66777;52.282;5.960;2023-02-20T17:02:01;8.80;85.50
77613;DHT22;66777;52.282;5.960;2023-02-20T17:04:27;8.80;85.70
77613;DHT22;66777;52.282;5.960;2023-02-20T17:06:53;8.80;85.60
77613;DHT22;66777;52.282;5.960;2023-02-20T17:09:18;8.80;85.60
77613;DHT22;66777;52.282;5.960;2023-02-20T17:11:44;8.80;85.30
77613;DHT22;66777;52.282;5.960;2023-02-20T17:14:10;8.80;85.70
77613;DHT22;66777;52.282;5.960;2023-02-20T17:16:38;8.80;85.30
77613;DHT22;66777;52.282;5.960;2023-02-20T17:19:04;8.80;85.30
77613;DHT22;66777;52.282;5.960;2023-02-20T17:21:30;8.80;85.50
77613;DHT22;66777;52.282;5.960;2023-02-20T17:23:56;8.80;85.50
77613;DHT22;66777;52.282;5.960;2023-02-20T17:26:22;8.80;85.80
77613;DHT22;66777;52.282;5.960;2023-02-20T17:28:52;8.70;85.70
77613;DHT22;66777;52.282;5.960;2023-02-20T17:31:18;8.80;85.90
77613;DHT22;66777;52.282;5.960;2023-02-20T17:33:43;8.70;86.00
77613;DHT22;66777;52.282;5.960;2023-02-20T17:36:09;8.70;85.90
77613;DHT22;66777;52.282;5.960;2023-02-20T17:38:35;8.60;85.90
77613;DHT22;66777;52.282;5.960;2023-02-20T17:41:01;8.60;86.00
77613;DHT22;66777;52.282;5.960;2023-02-20T17:43:28;8.70;85.60
77613;DHT22;66777;52.282;5.960;2023-02-20T17:45:56;8.60;85.60
77613;DHT22;66777;52.282;5.960;2023-02-20T17:48:21;8.60;85.70
77613;DHT22;66777;52.282;5.960;2023-02-20T17:50:47;8.50;85.90
77613;DHT22;66777;52.282;5.960;2023-02-20T17:53:13;8.60;85.90
77613;DHT22;66777;52.282;5.960;2023-02-20T17:55:39;8.50;86.10
77613;DHT22;66777;52.282;5.960;2023-02-20T17:58:05;8.50;85.80
77613;DHT22;66777;52.282;5.960;2023-02-20T18:00:30;8.60;85.80
77613;DHT22;66777;52.282;5.960;2023-02-20T18:02:56;8.60;86.10
77613;DHT22;66777;52.282;5.960;2023-02-20T18:05:22;8.50;86.10
77613;DHT22;66777;52.282;5.960;2023-02-20T18:07:47;8.50;86.00
77613;DHT22;66777;52.282;5.960;2023-02-20T18:10:13;8.40;86.20
77613;DHT22;66777;52.282;5.960;2023-02-20T18:12:39;8.40;86.30
77613;DHT22;66777;52.282;5.960;2023-02-20T18:15:07;8.30;86.70
77613;DHT22;66777;52.282;5.960;2023-02-20T18:17:35;8.40;86.80
77613;DHT22;66777;52.282;5.960;2023-02-20T18:20:01;8.40;86.70
77613;DHT22;66777;52.282;5.960;2023-02-20T18:22:27;8.40;86.50